createdAt,value
2018-09-26T00:04:44.209Z,10.40
2018-09-26T00:09:49.076Z,10.40
2018-09-26T00:14:53.063Z,10.30
2018-09-26T00:19:56.674Z,10.20
2018-09-26T00:25:00.655Z,10.20
2018-09-26T00:30:04.433Z,10.10
2018-09-26T00:35:08.080Z,10.10
2018-09-26T00:40:12.039Z,10.00
2018-09-26T00:45:16.037Z,9.90
2018-09-26T00:50:20.637Z,9.90
2018-09-26T00:55:24.378Z,9.80
2018-09-26T01:00:28.303Z,9.80
2018-09-26T01:05:32.003Z,9.80
2018-09-26T01:10:36.087Z,9.70
2018-09-26T01:15:40.744Z,9.80
2018-09-26T01:20:44.658Z,9.70
2018-09-26T01:25:48.348Z,9.80
2018-09-26T01:30:52.024Z,9.80
2018-09-26T01:35:55.954Z,9.80
2018-09-26T01:40:59.679Z,9.80
2018-09-26T01:46:03.342Z,9.90
2018-09-26T01:51:07.191Z,10.00
2018-09-26T01:56:11.528Z,10.00
2018-09-26T02:01:15.276Z,10.10
2018-09-26T02:06:18.898Z,10.20
2018-09-26T02:11:22.574Z,10.20
2018-09-26T02:16:26.648Z,10.20
2018-09-26T02:21:31.115Z,10.20
2018-09-26T02:26:34.768Z,10.10
2018-09-26T02:31:48.568Z,10.10
2018-09-26T02:36:52.644Z,10.00
2018-09-26T02:41:56.525Z,10.00
2018-09-26T02:47:00.335Z,10.00
2018-09-26T02:52:03.907Z,9.90
2018-09-26T02:57:08.180Z,9.90
2018-09-26T03:02:11.995Z,9.90
2018-09-26T03:07:16.325Z,9.80
2018-09-26T03:12:20.219Z,9.80
2018-09-26T03:17:24.191Z,9.80
2018-09-26T03:22:27.899Z,9.80
2018-09-26T03:27:31.610Z,9.80
2018-09-26T03:32:35.653Z,9.70
2018-09-26T03:37:40.050Z,9.70
2018-09-26T03:42:44.279Z,9.70
2018-09-26T03:47:48.431Z,9.70
2018-09-26T03:52:52.427Z,9.70
2018-09-26T03:57:56.574Z,9.70
2018-09-26T04:03:00.260Z,9.70
2018-09-26T04:08:07.793Z,9.70
2018-09-26T04:13:12.015Z,9.70
2018-09-26T04:18:16.578Z,9.70
2018-09-26T04:23:20.687Z,9.70
2018-09-26T04:28:24.730Z,9.70
2018-09-26T04:33:29.112Z,9.60
2018-09-26T04:38:33.272Z,9.60
2018-09-26T04:43:37.423Z,9.60
2018-09-26T04:48:41.175Z,9.60
2018-09-26T04:53:45.287Z,9.60
2018-09-26T04:58:48.984Z,9.50
2018-09-26T05:03:52.760Z,9.60
2018-09-26T05:08:57.550Z,9.50
2018-09-26T05:14:01.628Z,9.50
2018-09-26T05:19:09.570Z,9.50
2018-09-26T05:24:13.639Z,9.60
2018-09-26T05:29:33.404Z,9.70
2018-09-26T05:34:37.519Z,9.80
2018-09-26T05:39:41.237Z,9.90
2018-09-26T05:44:44.850Z,9.90
2018-09-26T05:50:07.812Z,9.90
2018-09-26T05:55:11.590Z,9.90
2018-09-26T06:00:15.927Z,9.90
2018-09-26T06:05:19.944Z,9.90
2018-09-26T06:10:23.952Z,9.90
2018-09-26T06:15:27.692Z,9.90
2018-09-26T06:20:32.027Z,10.00
2018-09-26T06:25:35.802Z,10.00
2018-09-26T06:30:40.026Z,10.00
2018-09-26T06:35:44.420Z,10.00
2018-09-26T06:40:48.495Z,10.10
2018-09-26T06:45:52.539Z,10.10
2018-09-26T06:50:56.361Z,10.20
2018-09-26T06:56:00.521Z,10.30
2018-09-26T07:01:04.996Z,10.30
2018-09-26T07:06:09.368Z,10.50
2018-09-26T07:11:13.035Z,10.60
2018-09-26T07:16:16.848Z,10.70
2018-09-26T07:21:20.695Z,10.90
2018-09-26T07:26:24.832Z,11.10
2018-09-26T07:31:28.676Z,11.30
2018-09-26T07:36:32.596Z,11.40
2018-09-26T07:41:37.174Z,11.60
2018-09-26T07:46:41.406Z,11.80
2018-09-26T07:51:45.230Z,11.90
2018-09-26T07:56:49.191Z,12.00
2018-09-26T08:01:53.132Z,12.20
2018-09-26T08:06:57.695Z,12.30
2018-09-26T08:12:01.707Z,12.40
2018-09-26T08:18:35.006Z,12.50
2018-09-26T08:23:39.912Z,12.60
2018-09-26T08:28:44.008Z,12.80
2018-09-26T08:33:47.722Z,13.00
2018-09-26T08:38:52.089Z,13.10
2018-09-26T08:43:56.191Z,13.20
2018-09-26T08:48:59.899Z,13.40
2018-09-26T08:54:03.716Z,13.50
2018-09-26T08:59:07.820Z,13.60
2018-09-26T09:04:12.110Z,13.70
2018-09-26T09:09:16.685Z,13.80
2018-09-26T09:14:20.883Z,13.90
2018-09-26T09:19:43.174Z,13.90
2018-09-26T09:24:46.865Z,14.00
2018-09-26T09:29:51.249Z,14.20
2018-09-26T09:34:54.803Z,14.30
2018-09-26T09:39:58.623Z,14.40
2018-09-26T09:45:02.836Z,14.60
2018-09-26T09:50:07.075Z,14.70
2018-09-26T09:55:11.288Z,14.80
2018-09-26T10:00:15.515Z,14.90
2018-09-26T10:05:19.931Z,15.00
2018-09-26T10:10:24.583Z,15.10
2018-09-26T10:15:28.666Z,15.10
2018-09-26T10:20:33.056Z,15.20
2018-09-26T10:25:37.467Z,15.30
2018-09-26T10:30:41.858Z,15.30
2018-09-26T10:35:45.680Z,15.40
2018-09-26T10:40:49.713Z,15.50
2018-09-26T10:45:53.700Z,15.60
2018-09-26T10:50:57.792Z,15.60
2018-09-26T10:56:01.668Z,15.60
2018-09-26T11:01:05.370Z,15.70
2018-09-26T11:06:09.431Z,15.90
2018-09-26T11:11:13.936Z,16.10
2018-09-26T11:16:18.354Z,16.20
2018-09-26T11:21:22.478Z,16.30
2018-09-26T11:26:26.508Z,16.50
2018-09-26T11:31:30.479Z,16.60
2018-09-26T11:36:35.438Z,16.80
2018-09-26T11:41:39.272Z,16.90
2018-09-26T11:46:42.829Z,17.00
2018-09-26T11:51:46.997Z,17.10
2018-09-26T11:56:51.043Z,17.20
2018-09-26T12:01:55.106Z,17.30
2018-09-26T12:06:59.025Z,17.50
2018-09-26T12:12:02.922Z,17.70
2018-09-26T12:17:07.308Z,17.90
2018-09-26T12:22:11.251Z,18.00
2018-09-26T12:27:15.050Z,18.20
2018-09-26T12:32:18.869Z,18.40
2018-09-26T12:37:22.592Z,18.50
2018-09-26T12:42:26.812Z,18.70
2018-09-26T12:47:30.616Z,18.80
2018-09-26T12:52:34.281Z,19.00
2018-09-26T12:57:38.059Z,19.10
2018-09-26T13:02:42.100Z,19.20
2018-09-26T13:07:45.851Z,19.30
2018-09-26T13:12:49.608Z,19.40
2018-09-26T13:17:53.264Z,19.60
2018-09-26T13:22:57.625Z,19.70
2018-09-26T13:28:02.092Z,19.80
2018-09-26T13:33:05.676Z,19.90
2018-09-26T13:38:10.133Z,20.00
2018-09-26T13:43:14.044Z,20.10
2018-09-26T13:48:17.881Z,20.20
2018-09-26T13:53:21.609Z,20.30
2018-09-26T13:58:32.499Z,20.30
2018-09-26T14:03:36.964Z,20.30
2018-09-26T14:08:40.646Z,20.30
2018-09-26T14:13:44.466Z,20.40
2018-09-26T14:19:00.137Z,20.50
2018-09-26T14:24:04.063Z,20.50
2018-09-26T14:29:14.574Z,20.50
2018-09-26T14:34:18.607Z,20.60
2018-09-26T14:39:26.212Z,20.60
2018-09-26T14:44:30.134Z,20.60
2018-09-26T14:49:50.091Z,20.60
2018-09-26T14:54:54.165Z,20.70
2018-09-26T14:59:57.913Z,20.70
2018-09-26T15:05:01.901Z,20.70
2018-09-26T15:10:06.411Z,20.80
2018-09-26T15:15:10.404Z,20.70
2018-09-26T15:20:14.261Z,20.70
2018-09-26T15:25:18.211Z,20.60
2018-09-26T15:30:22.468Z,20.70
2018-09-26T15:35:26.875Z,20.70
2018-09-26T15:40:30.783Z,20.60
2018-09-26T15:45:34.801Z,20.50
2018-09-26T15:50:38.988Z,20.40
2018-09-26T15:55:42.844Z,20.20
2018-09-26T16:00:46.604Z,20.00
2018-09-26T16:05:50.322Z,19.90
2018-09-26T16:10:54.761Z,19.70
2018-09-26T16:15:58.558Z,19.60
2018-09-26T16:21:02.471Z,19.50
2018-09-26T16:26:08.454Z,19.40
2018-09-26T16:31:12.691Z,19.30
2018-09-26T16:36:17.245Z,19.20
2018-09-26T16:41:21.245Z,19.10
2018-09-26T16:46:25.229Z,19.10
2018-09-26T16:51:29.887Z,19.00
2018-09-26T16:56:34.591Z,18.90
2018-09-26T17:01:38.847Z,18.80
2018-09-26T17:06:43.163Z,18.70
2018-09-26T17:11:47.455Z,18.60
2018-09-26T17:16:51.653Z,18.60
2018-09-26T17:21:55.748Z,18.50
2018-09-26T17:26:59.915Z,18.40
2018-09-26T17:32:03.657Z,18.30
2018-09-26T17:37:07.548Z,18.20
2018-09-26T17:42:11.314Z,18.00
2018-09-26T17:47:20.147Z,17.80
2018-09-26T17:52:24.378Z,17.70
2018-09-26T17:57:28.645Z,17.60
2018-09-26T18:02:32.282Z,17.60
2018-09-26T18:07:36.247Z,17.50
2018-09-26T18:12:39.880Z,17.40
2018-09-26T18:17:43.640Z,17.20
2018-09-26T18:22:47.247Z,17.00
2018-09-26T18:27:50.967Z,16.90
2018-09-26T18:32:54.669Z,16.70
2018-09-26T18:37:58.652Z,16.50
2018-09-26T18:43:02.404Z,16.30
2018-09-26T18:48:06.252Z,16.20
2018-09-26T18:53:10.018Z,16.00
2018-09-26T18:58:13.720Z,15.80
2018-09-26T19:03:17.533Z,15.70
2018-09-26T19:08:39.655Z,15.60
2018-09-26T19:13:43.497Z,15.50
2018-09-26T19:19:07.392Z,15.40
2018-09-26T19:24:11.120Z,15.30
2018-09-26T19:29:15.036Z,15.20
2018-09-26T19:34:18.690Z,15.10
2018-09-26T19:39:22.398Z,15.00
2018-09-26T19:44:26.083Z,14.90
2018-09-26T19:49:29.839Z,14.80
2018-09-26T19:54:33.539Z,14.80
2018-09-26T19:59:37.088Z,14.70
2018-09-26T20:04:42.791Z,14.60
2018-09-26T20:09:46.435Z,14.60
2018-09-26T20:14:50.280Z,14.50
2018-09-26T20:19:53.903Z,14.40
2018-09-26T20:24:57.836Z,14.40
2018-09-26T20:30:01.685Z,14.30
2018-09-26T20:35:05.530Z,14.30
2018-09-26T20:40:09.264Z,14.20
2018-09-26T20:45:13.113Z,14.10
2018-09-26T20:50:16.930Z,14.10
2018-09-26T20:55:21.224Z,14.10
2018-09-26T21:00:25.418Z,14.00
2018-09-26T21:05:29.701Z,13.90
2018-09-26T21:10:34.243Z,13.90
2018-09-26T21:15:38.791Z,13.90
2018-09-26T21:20:42.708Z,13.90
2018-09-26T21:25:46.568Z,13.80
2018-09-26T21:30:50.215Z,13.70
2018-09-26T21:35:54.239Z,13.80
2018-09-26T21:40:58.072Z,13.70
2018-09-26T21:46:02.131Z,13.70
2018-09-26T21:51:05.944Z,13.60
2018-09-26T21:56:10.121Z,13.60
2018-09-26T22:01:15.777Z,13.60
2018-09-26T22:06:19.717Z,13.50
2018-09-26T22:11:23.925Z,13.50
2018-09-26T22:16:27.931Z,13.50
2018-09-26T22:21:32.475Z,13.50
2018-09-26T22:26:36.236Z,13.50
2018-09-26T22:31:40.135Z,13.50
2018-09-26T22:36:44.412Z,13.50
2018-09-26T22:41:48.402Z,13.50
2018-09-26T22:46:52.768Z,13.40
2018-09-26T22:51:56.580Z,13.40
2018-09-26T22:57:00.906Z,13.40
2018-09-26T23:02:05.137Z,13.40
2018-09-26T23:07:09.295Z,13.40
2018-09-26T23:12:13.122Z,13.40
2018-09-26T23:17:17.162Z,13.30
2018-09-26T23:22:21.173Z,13.30
2018-09-26T23:27:25.415Z,13.30
2018-09-26T23:32:29.032Z,13.20
2018-09-26T23:37:33.149Z,13.20
2018-09-26T23:42:37.102Z,13.20
2018-09-26T23:47:41.150Z,13.20
2018-09-26T23:52:45.340Z,13.10
2018-09-26T23:57:49.241Z,13.10
